createdAt,value
2023-05-02T00:00:27.256Z,0
2023-05-02T00:01:27.758Z,0
2023-05-02T00:02:29.149Z,0
2023-05-02T00:03:29.561Z,0
2023-05-02T00:04:29.764Z,0
2023-05-02T00:05:29.804Z,0
2023-05-02T00:06:30.633Z,0
2023-05-02T00:07:31.683Z,0
2023-05-02T00:08:32.002Z,0
2023-05-02T00:09:32.615Z,0
2023-05-02T00:10:33.192Z,0
2023-05-02T00:11:34.348Z,0
2023-05-02T00:12:35.280Z,0
2023-05-02T00:13:35.295Z,0
2023-05-02T00:14:35.368Z,0
2023-05-02T00:15:36.084Z,0
2023-05-02T00:16:36.997Z,0
2023-05-02T00:17:37.985Z,0
2023-05-02T00:18:37.759Z,0
2023-05-02T00:19:39.585Z,0
2023-05-02T00:20:39.727Z,0
2023-05-02T00:21:40.055Z,0
2023-05-02T00:22:40.801Z,0
2023-05-02T00:23:41.291Z,0
2023-05-02T00:24:42.204Z,0
2023-05-02T00:25:42.280Z,0
2023-05-02T00:26:43.034Z,0
2023-05-02T00:27:43.358Z,0
2023-05-02T00:28:44.098Z,0
2023-05-02T00:29:44.901Z,0
2023-05-02T00:30:45.506Z,0
2023-05-02T00:31:46.915Z,0
2023-05-02T00:32:47.060Z,0
2023-05-02T00:33:47.457Z,0
2023-05-02T00:34:47.974Z,0
2023-05-02T00:35:48.607Z,0
2023-05-02T00:36:49.577Z,0
2023-05-02T00:37:50.003Z,0
2023-05-02T00:38:50.320Z,0
2023-05-02T00:39:51.080Z,0
2023-05-02T00:40:51.443Z,0
2023-05-02T00:41:52.143Z,0
2023-05-02T00:42:52.672Z,0
2023-05-02T00:43:53.478Z,0
2023-05-02T00:44:53.954Z,0
2023-05-02T00:45:55.279Z,0
2023-05-02T00:46:56.224Z,0
2023-05-02T00:47:57.236Z,0
2023-05-02T00:48:57.994Z,0
2023-05-02T00:49:58.531Z,0
2023-05-02T00:50:59.562Z,0
2023-05-02T00:52:00.564Z,0
2023-05-02T00:53:00.744Z,0
2023-05-02T00:54:00.661Z,0
2023-05-02T00:55:01.790Z,0
2023-05-02T00:56:02.177Z,0
2023-05-02T00:57:02.887Z,0
2023-05-02T00:58:03.205Z,0
2023-05-02T00:59:04.125Z,0
2023-05-02T01:00:05.033Z,0
2023-05-02T01:01:04.784Z,0
2023-05-02T01:02:05.751Z,0
2023-05-02T01:03:06.455Z,0
2023-05-02T01:04:07.114Z,0
2023-05-02T01:05:07.143Z,0
2023-05-02T01:06:08.218Z,0
2023-05-02T01:07:08.204Z,0
2023-05-02T01:08:08.800Z,0
2023-05-02T01:09:09.282Z,0
2023-05-02T01:10:10.655Z,0
2023-05-02T01:11:10.416Z,0
2023-05-02T01:12:10.940Z,0
2023-05-02T01:13:11.674Z,0
2023-05-02T01:14:11.595Z,0
2023-05-02T01:15:12.148Z,0
2023-05-02T01:16:13.746Z,0
2023-05-02T01:17:13.612Z,0
2023-05-02T01:18:14.784Z,0
2023-05-02T01:19:15.095Z,0
2023-05-02T01:20:16.350Z,0
2023-05-02T01:21:17.228Z,0
2023-05-02T01:22:17.215Z,0
2023-05-02T01:23:17.750Z,0
2023-05-02T01:24:18.242Z,0
2023-05-02T01:25:18.924Z,0
2023-05-02T01:26:19.676Z,0
2023-05-02T01:27:20.589Z,0
2023-05-02T01:28:21.514Z,0
2023-05-02T01:29:22.230Z,0
2023-05-02T01:30:22.427Z,0
2023-05-02T01:31:22.939Z,0
2023-05-02T01:32:23.890Z,0
2023-05-02T01:33:23.978Z,0
2023-05-02T01:34:24.859Z,0
2023-05-02T01:35:25.163Z,0
2023-05-02T01:36:25.643Z,0
2023-05-02T01:37:26.482Z,0
2023-05-02T01:38:27.219Z,0
2023-05-02T01:39:27.756Z,0
2023-05-02T01:40:28.773Z,0
2023-05-02T01:41:29.049Z,0
2023-05-02T01:42:29.932Z,0
2023-05-02T01:43:30.443Z,0
2023-05-02T01:44:31.404Z,0
2023-05-02T01:45:31.724Z,0
2023-05-02T01:46:32.762Z,0
2023-05-02T01:47:32.960Z,0
2023-05-02T01:48:33.546Z,0
2023-05-02T01:49:34.030Z,0
2023-05-02T01:50:34.616Z,0
2023-05-02T01:51:35.113Z,0
2023-05-02T01:52:35.632Z,0
2023-05-02T01:53:36.159Z,0
2023-05-02T01:54:36.674Z,0
2023-05-02T01:55:37.401Z,0
2023-05-02T01:56:37.949Z,0
2023-05-02T01:57:38.686Z,0
2023-05-02T01:58:39.198Z,0
2023-05-02T01:59:39.932Z,0
2023-05-02T02:00:40.449Z,0
2023-05-02T02:01:41.323Z,0
2023-05-02T02:02:41.893Z,0
2023-05-02T02:03:43.249Z,0
2023-05-02T02:04:43.146Z,0
2023-05-02T02:05:43.807Z,0
2023-05-02T02:06:44.683Z,0
2023-05-02T02:07:45.641Z,0
2023-05-02T02:08:45.542Z,0
2023-05-02T02:09:46.248Z,0
2023-05-02T02:10:46.985Z,0
2023-05-02T02:11:48.096Z,0
2023-05-02T02:12:48.832Z,0
2023-05-02T02:13:49.362Z,0
2023-05-02T02:14:49.875Z,0
2023-05-02T02:15:50.774Z,0
2023-05-02T02:16:51.758Z,0
2023-05-02T02:17:52.785Z,0
2023-05-02T02:18:53.645Z,0
2023-05-02T02:19:54.137Z,0
2023-05-02T02:20:55.021Z,0
2023-05-02T02:21:55.506Z,0
2023-05-02T02:22:56.222Z,0
2023-05-02T02:23:56.947Z,0
2023-05-02T02:25:00.119Z,0
2023-05-02T02:25:57.615Z,0
2023-05-02T02:26:58.692Z,0
2023-05-02T02:27:59.602Z,0
2023-05-02T02:28:59.713Z,0
2023-05-02T02:30:00.688Z,0
2023-05-02T02:31:01.973Z,0
2023-05-02T02:32:01.611Z,0
2023-05-02T02:33:02.689Z,0
2023-05-02T02:34:03.341Z,0
2023-05-02T02:35:04.065Z,0
2023-05-02T02:36:04.653Z,0
2023-05-02T02:37:05.148Z,0
2023-05-02T02:38:05.868Z,0
2023-05-02T02:39:06.591Z,0
2023-05-02T02:40:07.751Z,0
2023-05-02T02:41:07.349Z,0
2023-05-02T02:42:08.235Z,0
2023-05-02T02:43:09.148Z,0
2023-05-02T02:44:08.902Z,0
2023-05-02T02:45:09.826Z,0
2023-05-02T02:46:10.630Z,0
2023-05-02T02:47:11.389Z,0
2023-05-02T02:48:12.157Z,0
2023-05-02T02:49:12.441Z,0
2023-05-02T02:50:13.108Z,0
2023-05-02T02:51:13.901Z,0
2023-05-02T02:52:14.883Z,0
2023-05-02T02:53:15.599Z,0
2023-05-02T02:54:33.222Z,0
2023-05-02T02:56:17.120Z,0
2023-05-02T02:57:17.673Z,0
2023-05-02T02:58:18.168Z,0
2023-05-02T02:59:18.622Z,0
2023-05-02T03:00:19.538Z,0
2023-05-02T03:01:20.500Z,0
2023-05-02T03:02:21.545Z,0
2023-05-02T03:03:22.207Z,0
2023-05-02T03:04:22.167Z,0
2023-05-02T03:05:22.980Z,0
2023-05-02T03:06:23.548Z,0
2023-05-02T03:07:23.433Z,0
2023-05-02T03:08:23.939Z,0
2023-05-02T03:09:24.392Z,0
2023-05-02T03:10:25.279Z,0
2023-05-02T03:11:26.356Z,0
2023-05-02T03:12:26.969Z,0
2023-05-02T03:13:27.483Z,0
2023-05-02T03:14:27.658Z,0
2023-05-02T03:15:28.364Z,0
2023-05-02T03:16:29.369Z,0
2023-05-02T03:17:31.774Z,0
2023-05-02T03:18:30.410Z,0
2023-05-02T03:19:31.364Z,0
2023-05-02T03:20:31.702Z,0
2023-05-02T03:21:32.525Z,0
2023-05-02T03:22:33.646Z,0
2023-05-02T03:23:33.689Z,0
2023-05-02T03:24:34.436Z,0
2023-05-02T03:25:35.120Z,0
2023-05-02T03:26:35.817Z,0
2023-05-02T03:27:35.902Z,0
2023-05-02T03:28:36.375Z,0
2023-05-02T03:29:37.313Z,0
2023-05-02T03:30:37.231Z,0
2023-05-02T03:31:37.913Z,0
2023-05-02T03:32:38.806Z,0
2023-05-02T03:33:39.361Z,0
2023-05-02T03:34:39.871Z,0
2023-05-02T03:35:40.169Z,0
2023-05-02T03:36:40.915Z,0
2023-05-02T03:37:41.681Z,0
2023-05-02T03:38:42.232Z,0
2023-05-02T03:39:43.437Z,0
2023-05-02T03:40:43.733Z,0
2023-05-02T03:41:45.001Z,0
2023-05-02T03:42:45.642Z,0
2023-05-02T03:43:46.734Z,0
2023-05-02T03:44:47.043Z,0
2023-05-02T03:45:48.773Z,0
2023-05-02T03:46:48.342Z,0
2023-05-02T03:47:49.167Z,0
2023-05-02T03:48:49.894Z,0
2023-05-02T03:49:50.218Z,0
2023-05-02T03:50:51.148Z,0
2023-05-02T03:51:51.766Z,0
2023-05-02T03:52:52.267Z,0
2023-05-02T03:53:52.781Z,0
2023-05-02T03:54:54.094Z,4
2023-05-02T03:55:53.979Z,4
2023-05-02T03:56:54.880Z,4
2023-05-02T03:57:55.444Z,4
2023-05-02T03:58:56.339Z,4
2023-05-02T03:59:56.956Z,4
2023-05-02T04:00:56.872Z,0
2023-05-02T04:01:57.682Z,0
2023-05-02T04:02:59.053Z,4
2023-05-02T04:03:59.120Z,4
2023-05-02T04:04:59.041Z,4
2023-05-02T04:05:59.777Z,4
2023-05-02T04:07:00.582Z,4
2023-05-02T04:08:01.072Z,4
2023-05-02T04:09:01.646Z,8
2023-05-02T04:10:02.888Z,4
2023-05-02T04:11:02.584Z,4
2023-05-02T04:12:02.982Z,8
2023-05-02T04:13:03.474Z,4
2023-05-02T04:14:04.709Z,8
2023-05-02T04:15:04.445Z,8
2023-05-02T04:16:05.200Z,8
2023-05-02T04:17:06.352Z,8
2023-05-02T04:18:06.722Z,12
2023-05-02T04:19:06.311Z,12
2023-05-02T04:20:11.327Z,12
2023-05-02T04:21:08.041Z,12
2023-05-02T04:22:08.131Z,16
2023-05-02T04:23:08.829Z,16
2023-05-02T04:24:09.643Z,16
2023-05-02T04:25:10.400Z,20
2023-05-02T04:26:11.276Z,20
2023-05-02T04:27:14.533Z,20
2023-05-02T04:28:12.643Z,24
2023-05-02T04:29:13.356Z,24
2023-05-02T04:30:14.782Z,28
2023-05-02T04:31:14.596Z,28
2023-05-02T04:32:15.099Z,32
2023-05-02T04:33:16.322Z,32
2023-05-02T04:34:16.060Z,40
2023-05-02T04:35:17.029Z,40
2023-05-02T04:36:17.560Z,40
2023-05-02T04:37:18.046Z,44
2023-05-02T04:38:18.758Z,44
2023-05-02T04:39:19.679Z,48
2023-05-02T04:40:20.197Z,48
2023-05-02T04:41:20.734Z,52
2023-05-02T04:42:22.045Z,56
2023-05-02T04:43:24.513Z,60
2023-05-02T04:44:23.476Z,68
2023-05-02T04:45:23.997Z,72
2023-05-02T04:46:25.245Z,76
2023-05-02T04:47:25.770Z,76
2023-05-02T04:48:26.511Z,80
2023-05-02T04:49:27.114Z,84
2023-05-02T04:50:28.176Z,84
2023-05-02T04:51:28.084Z,84
2023-05-02T04:52:28.706Z,80
2023-05-02T04:53:29.384Z,76
2023-05-02T04:54:30.246Z,72
2023-05-02T04:55:31.189Z,76
2023-05-02T04:56:31.668Z,84
2023-05-02T04:57:33.989Z,88
2023-05-02T04:58:32.460Z,92
2023-05-02T04:59:32.802Z,96
2023-05-02T05:00:33.107Z,96
2023-05-02T05:01:34.251Z,96
2023-05-02T05:02:35.436Z,100
2023-05-02T05:03:36.767Z,104
2023-05-02T05:04:36.809Z,112
2023-05-02T05:05:37.758Z,120
2023-05-02T05:06:38.137Z,132
2023-05-02T05:07:38.004Z,140
2023-05-02T05:08:38.940Z,144
2023-05-02T05:09:39.650Z,156
2023-05-02T05:10:40.394Z,168
2023-05-02T05:11:41.283Z,184
2023-05-02T05:12:41.856Z,188
2023-05-02T05:13:42.722Z,192
2023-05-02T05:14:43.406Z,196
2023-05-02T05:15:43.576Z,208
2023-05-02T05:16:44.951Z,224
2023-05-02T05:17:44.949Z,236
2023-05-02T05:18:46.061Z,244
2023-05-02T05:19:46.179Z,244
2023-05-02T05:20:46.171Z,252
2023-05-02T05:21:46.268Z,264
2023-05-02T05:22:47.626Z,272
2023-05-02T05:23:48.335Z,280
2023-05-02T05:24:48.870Z,280
2023-05-02T05:25:51.672Z,288
2023-05-02T05:26:50.185Z,304
2023-05-02T05:27:50.917Z,312
2023-05-02T05:28:51.761Z,312
2023-05-02T05:29:52.480Z,324
2023-05-02T05:30:53.128Z,324
2023-05-02T05:31:54.114Z,324
2023-05-02T05:32:55.490Z,324
2023-05-02T05:33:56.278Z,340
2023-05-02T05:34:56.871Z,356
2023-05-02T05:35:57.817Z,360
2023-05-02T05:36:58.310Z,364
2023-05-02T05:37:59.252Z,392
2023-05-02T05:38:59.386Z,420
2023-05-02T05:39:59.724Z,444
2023-05-02T05:41:00.050Z,464
2023-05-02T05:41:59.548Z,488
2023-05-02T05:43:00.151Z,504
2023-05-02T05:44:00.655Z,492
2023-05-02T05:45:01.194Z,484
2023-05-02T05:46:02.016Z,472
2023-05-02T05:47:02.987Z,456
2023-05-02T05:48:03.969Z,444
2023-05-02T05:49:03.954Z,436
2023-05-02T05:50:05.537Z,456
2023-05-02T05:51:05.195Z,456
2023-05-02T05:52:05.689Z,432
2023-05-02T05:53:07.134Z,416
2023-05-02T05:54:07.845Z,436
2023-05-02T05:55:08.390Z,472
2023-05-02T05:56:09.151Z,508
2023-05-02T05:57:09.855Z,532
2023-05-02T05:58:10.557Z,528
2023-05-02T05:59:11.101Z,496
2023-05-02T06:00:12.094Z,504
2023-05-02T06:01:12.883Z,564
2023-05-02T06:02:13.525Z,652
2023-05-02T06:03:15.749Z,720
2023-05-02T06:04:15.129Z,736
2023-05-02T06:05:15.101Z,736
2023-05-02T06:06:15.777Z,740
2023-05-02T06:07:16.339Z,768
2023-05-02T06:08:16.631Z,764
2023-05-02T06:09:18.163Z,748
2023-05-02T06:10:18.715Z,720
2023-05-02T06:11:19.450Z,688
2023-05-02T06:12:18.928Z,656
2023-05-02T06:13:19.578Z,640
2023-05-02T06:14:20.180Z,648
2023-05-02T06:15:20.902Z,668
2023-05-02T06:16:21.849Z,672
2023-05-02T06:17:21.703Z,652
2023-05-02T06:18:22.124Z,644
2023-05-02T06:19:22.638Z,620
2023-05-02T06:20:24.631Z,588
2023-05-02T06:21:23.784Z,584
2023-05-02T06:22:24.075Z,604
2023-05-02T06:23:25.674Z,632
2023-05-02T06:24:26.554Z,672
2023-05-02T06:25:27.066Z,676
2023-05-02T06:26:27.877Z,672
2023-05-02T06:27:28.545Z,688
2023-05-02T06:28:29.274Z,708
2023-05-02T06:29:29.804Z,728
2023-05-02T06:30:30.550Z,780
2023-05-02T06:31:30.566Z,852
2023-05-02T06:32:31.014Z,924
2023-05-02T06:33:31.296Z,968
2023-05-02T06:34:32.183Z,996
2023-05-02T06:35:32.723Z,984
2023-05-02T06:36:33.693Z,972
2023-05-02T06:37:34.205Z,988
2023-05-02T06:38:34.909Z,1004
2023-05-02T06:39:35.856Z,1004
2023-05-02T06:40:35.798Z,1012
2023-05-02T06:41:36.537Z,1024
2023-05-02T06:42:37.433Z,1032
2023-05-02T06:43:38.002Z,1000
2023-05-02T06:44:37.862Z,948
2023-05-02T06:45:38.754Z,888
2023-05-02T06:46:39.673Z,864
2023-05-02T06:47:40.834Z,852
2023-05-02T06:48:41.249Z,836
2023-05-02T06:49:41.978Z,824
2023-05-02T06:50:41.905Z,812
2023-05-02T06:51:42.716Z,788
2023-05-02T06:52:43.176Z,760
2023-05-02T06:53:44.511Z,724
2023-05-02T06:54:44.405Z,716
2023-05-02T06:55:45.095Z,716
2023-05-02T06:56:45.246Z,712
2023-05-02T06:57:45.950Z,716
2023-05-02T06:58:46.853Z,720
2023-05-02T06:59:47.573Z,720
2023-05-02T07:00:48.990Z,744
2023-05-02T07:01:49.140Z,760
2023-05-02T07:02:49.031Z,792
2023-05-02T07:03:49.159Z,824
2023-05-02T07:04:50.649Z,860
2023-05-02T07:05:50.795Z,848
2023-05-02T07:06:51.067Z,784
2023-05-02T07:07:51.131Z,716
2023-05-02T07:08:52.049Z,680
2023-05-02T07:09:52.577Z,668
2023-05-02T07:10:53.619Z,660
2023-05-02T07:11:54.371Z,652
2023-05-02T07:12:54.947Z,672
2023-05-02T07:13:55.365Z,712
2023-05-02T07:14:56.634Z,748
2023-05-02T07:15:57.175Z,784
2023-05-02T07:16:58.005Z,860
2023-05-02T07:17:58.094Z,944
2023-05-02T07:18:58.141Z,996
2023-05-02T07:19:58.659Z,1024
2023-05-02T07:20:58.708Z,1064
2023-05-02T07:21:59.222Z,1092
2023-05-02T07:22:59.931Z,1088
2023-05-02T07:23:59.873Z,1084
2023-05-02T07:25:00.974Z,1116
2023-05-02T07:26:03.254Z,1184
2023-05-02T07:27:02.035Z,1252
2023-05-02T07:28:02.983Z,1324
2023-05-02T07:29:03.500Z,1408
2023-05-02T07:30:05.083Z,1472
2023-05-02T07:31:04.595Z,1528
2023-05-02T07:32:05.308Z,1588
2023-05-02T07:33:06.940Z,1660
2023-05-02T07:34:06.442Z,1744
2023-05-02T07:35:07.626Z,1852
2023-05-02T07:36:07.449Z,1940
2023-05-02T07:37:08.008Z,2012
2023-05-02T07:38:08.918Z,2176
2023-05-02T07:39:09.614Z,2336
2023-05-02T07:40:10.996Z,2500
2023-05-02T07:41:11.048Z,2640
2023-05-02T07:42:11.983Z,2764
2023-05-02T07:43:16.247Z,2868
2023-05-02T07:44:13.495Z,2876
2023-05-02T07:45:14.236Z,2940
2023-05-02T07:46:15.140Z,3108
2023-05-02T07:47:15.947Z,3244
2023-05-02T07:48:17.338Z,3188
2023-05-02T07:49:18.088Z,2944
2023-05-02T07:50:19.163Z,2988
2023-05-02T07:51:19.630Z,2940
2023-05-02T07:52:20.164Z,2872
2023-05-02T07:53:21.117Z,2788
2023-05-02T07:54:22.106Z,2648
2023-05-02T07:55:22.609Z,2640
2023-05-02T07:56:23.349Z,2664
2023-05-02T07:57:23.959Z,2776
2023-05-02T07:58:24.924Z,2828
2023-05-02T07:59:25.857Z,3024
2023-05-02T08:00:26.948Z,3044
2023-05-02T08:01:27.673Z,3064
2023-05-02T08:02:28.460Z,3060
2023-05-02T08:03:29.545Z,2728
2023-05-02T08:04:30.351Z,2636
2023-05-02T08:05:29.801Z,2600
2023-05-02T08:06:30.075Z,2588
2023-05-02T08:07:30.264Z,2548
2023-05-02T08:08:31.043Z,2468
2023-05-02T08:09:31.786Z,2392
2023-05-02T08:10:31.643Z,2368
2023-05-02T08:11:34.285Z,2484
2023-05-02T08:12:32.593Z,2652
2023-05-02T08:13:33.338Z,2952
2023-05-02T08:14:33.780Z,3140
2023-05-02T08:15:34.495Z,3108
2023-05-02T08:16:35.734Z,2972
2023-05-02T08:17:35.638Z,2836
2023-05-02T08:18:36.695Z,2720
2023-05-02T08:19:37.211Z,2684
2023-05-02T08:20:38.173Z,2636
2023-05-02T08:21:38.369Z,2592
2023-05-02T08:22:39.365Z,2536
2023-05-02T08:23:39.160Z,2592
2023-05-02T08:24:39.387Z,2888
2023-05-02T08:25:40.487Z,3080
2023-05-02T08:26:40.762Z,3352
2023-05-02T08:27:40.832Z,3560
2023-05-02T08:28:41.970Z,4008
2023-05-02T08:29:42.697Z,3944
2023-05-02T08:30:43.400Z,3892
2023-05-02T08:31:44.575Z,3980
2023-05-02T08:32:45.686Z,4056
2023-05-02T08:33:45.796Z,4204
2023-05-02T08:34:46.629Z,3828
2023-05-02T08:35:46.364Z,3396
2023-05-02T08:36:47.130Z,3076
2023-05-02T08:37:48.392Z,2996
2023-05-02T08:38:48.688Z,2920
2023-05-02T08:39:49.660Z,2864
2023-05-02T08:40:53.117Z,2784
2023-05-02T08:41:50.249Z,2836
2023-05-02T08:42:51.190Z,2500
2023-05-02T08:43:51.292Z,2224
2023-05-02T08:44:51.892Z,1940
2023-05-02T08:45:53.035Z,1688
2023-05-02T08:46:54.267Z,1536
2023-05-02T08:47:54.680Z,1460
2023-05-02T08:48:54.841Z,1464
2023-05-02T08:49:55.964Z,1548
2023-05-02T08:50:56.750Z,1588
2023-05-02T08:51:57.038Z,1600
2023-05-02T08:52:58.280Z,1604
2023-05-02T08:53:59.007Z,1596
2023-05-02T08:54:59.723Z,1588
2023-05-02T08:55:59.754Z,1552
2023-05-02T08:57:00.673Z,1488
2023-05-02T08:58:00.848Z,1428
2023-05-02T08:59:00.999Z,1380
2023-05-02T09:00:01.490Z,1324
2023-05-02T09:01:02.657Z,1280
2023-05-02T09:02:03.202Z,1228
2023-05-02T09:03:04.204Z,1172
2023-05-02T09:04:05.537Z,1116
2023-05-02T09:05:06.307Z,1064
2023-05-02T09:06:06.276Z,1000
2023-05-02T09:07:06.017Z,936
2023-05-02T09:08:07.002Z,872
2023-05-02T09:09:07.397Z,816
2023-05-02T09:10:08.122Z,772
2023-05-02T09:11:08.642Z,732
2023-05-02T09:12:09.582Z,704
2023-05-02T09:13:10.587Z,692
2023-05-02T09:14:10.510Z,668
2023-05-02T09:15:11.674Z,636
2023-05-02T09:16:12.465Z,616
2023-05-02T09:17:13.760Z,624
2023-05-02T09:18:14.473Z,640
2023-05-02T09:19:15.444Z,656
2023-05-02T09:20:16.404Z,656
2023-05-02T09:21:20.542Z,640
2023-05-02T09:22:17.816Z,616
2023-05-02T09:23:18.550Z,604
2023-05-02T09:24:19.341Z,600
2023-05-02T09:25:20.245Z,604
2023-05-02T09:26:20.548Z,620
2023-05-02T09:27:20.883Z,636
2023-05-02T09:28:21.820Z,652
2023-05-02T09:29:22.732Z,672
2023-05-02T09:30:23.483Z,692
2023-05-02T09:32:01.721Z,720
2023-05-02T09:33:25.154Z,740
2023-05-02T09:34:25.889Z,752
2023-05-02T09:35:27.180Z,760
2023-05-02T09:36:26.896Z,752
2023-05-02T09:37:27.257Z,740
2023-05-02T09:38:28.237Z,728
2023-05-02T09:39:31.799Z,728
2023-05-02T09:40:30.067Z,724
2023-05-02T09:41:30.593Z,720
2023-05-02T09:42:31.353Z,716
2023-05-02T09:43:32.077Z,712
2023-05-02T09:44:33.568Z,696
2023-05-02T09:45:33.307Z,688
2023-05-02T09:46:34.207Z,668
2023-05-02T09:47:34.474Z,648
2023-05-02T09:48:35.357Z,636
2023-05-02T09:49:35.485Z,616
2023-05-02T09:50:35.645Z,608
2023-05-02T09:51:36.212Z,600
2023-05-02T09:52:36.756Z,600
2023-05-02T09:53:37.602Z,604
2023-05-02T09:54:38.165Z,612
2023-05-02T09:55:38.405Z,612
2023-05-02T09:56:39.488Z,624
2023-05-02T09:57:40.196Z,652
2023-05-02T09:58:40.563Z,692
2023-05-02T09:59:41.496Z,744
2023-05-02T10:00:41.572Z,784
2023-05-02T10:01:42.592Z,824
2023-05-02T10:02:43.549Z,860
2023-05-02T10:03:43.910Z,884
2023-05-02T10:04:44.663Z,916
2023-05-02T10:05:44.142Z,948
2023-05-02T10:06:45.635Z,992
2023-05-02T10:07:45.624Z,1028
2023-05-02T10:08:46.766Z,1060
2023-05-02T10:09:47.480Z,1088
2023-05-02T10:10:48.459Z,1108
2023-05-02T10:11:47.964Z,1120
2023-05-02T10:12:48.917Z,1132
2023-05-02T10:13:49.689Z,1140
2023-05-02T10:14:50.458Z,1156
2023-05-02T10:15:51.528Z,1184
2023-05-02T10:16:52.184Z,1256
2023-05-02T10:17:53.121Z,1356
2023-05-02T10:18:54.097Z,1468
2023-05-02T10:19:54.105Z,1576
2023-05-02T10:20:55.022Z,1668
2023-05-02T10:21:55.729Z,1748
2023-05-02T10:22:56.671Z,1800
2023-05-02T10:23:57.399Z,1856
2023-05-02T10:24:58.154Z,1916
2023-05-02T10:25:59.994Z,1948
2023-05-02T10:26:58.884Z,1952
2023-05-02T10:28:00.026Z,1932
2023-05-02T10:29:00.377Z,1892
2023-05-02T10:30:01.113Z,1864
2023-05-02T10:31:02.136Z,1840
2023-05-02T10:32:03.427Z,1812
2023-05-02T10:33:04.123Z,1768
2023-05-02T10:34:05.180Z,1668
2023-05-02T10:35:06.988Z,1612
2023-05-02T10:37:07.581Z,1492
2023-05-02T10:38:08.270Z,1480
2023-05-02T10:39:09.423Z,1480
2023-05-02T10:40:10.162Z,1468
2023-05-02T10:41:11.208Z,1428
2023-05-02T10:42:11.162Z,1376
2023-05-02T10:43:12.354Z,1312
2023-05-02T10:44:13.060Z,1236
2023-05-02T10:45:13.501Z,1172
2023-05-02T10:46:14.453Z,1116
2023-05-02T10:47:15.426Z,1084
2023-05-02T10:48:15.821Z,1076
2023-05-02T10:49:15.756Z,1088
2023-05-02T10:50:16.945Z,1120
2023-05-02T10:51:17.069Z,1188
2023-05-02T10:52:17.578Z,1276
2023-05-02T10:53:18.085Z,1380
2023-05-02T10:54:19.216Z,1496
2023-05-02T10:55:20.083Z,1616
2023-05-02T10:56:20.377Z,1736
2023-05-02T10:57:20.602Z,1872
2023-05-02T10:58:21.568Z,2008
2023-05-02T10:59:22.560Z,2056
2023-05-02T11:00:23.281Z,2076
2023-05-02T11:01:24.204Z,2088
2023-05-02T11:02:25.133Z,2084
2023-05-02T11:03:26.859Z,2136
2023-05-02T11:04:27.129Z,2232
2023-05-02T11:05:26.887Z,2360
2023-05-02T11:06:28.382Z,2492
2023-05-02T11:07:28.491Z,2540
2023-05-02T11:08:31.481Z,2376
2023-05-02T11:09:29.361Z,2328
2023-05-02T11:10:30.103Z,2304
2023-05-02T11:11:31.060Z,2292
2023-05-02T11:12:31.942Z,2316
2023-05-02T11:13:32.708Z,2364
2023-05-02T11:14:33.490Z,2392
2023-05-02T11:15:34.278Z,2404
2023-05-02T11:16:35.408Z,2448
2023-05-02T11:17:35.487Z,2540
2023-05-02T11:18:36.058Z,2628
2023-05-02T11:19:37.295Z,2740
2023-05-02T11:20:37.452Z,2892
2023-05-02T11:21:38.317Z,3180
2023-05-02T11:22:39.216Z,3280
2023-05-02T11:23:39.408Z,3656
2023-05-02T11:24:39.416Z,4008
2023-05-02T11:25:41.963Z,4296
2023-05-02T11:26:40.359Z,3704
2023-05-02T11:27:41.297Z,3524
2023-05-02T11:28:41.466Z,3528
2023-05-02T11:29:42.024Z,3544
2023-05-02T11:30:42.763Z,3484
2023-05-02T11:31:43.603Z,3236
2023-05-02T11:32:44.681Z,3156
2023-05-02T11:33:44.478Z,3148
2023-05-02T11:34:45.266Z,3112
2023-05-02T11:35:46.219Z,3176
2023-05-02T11:36:47.090Z,3348
2023-05-02T11:37:47.584Z,3412
2023-05-02T11:38:48.510Z,3484
2023-05-02T11:39:49.063Z,3472
2023-05-02T11:40:49.564Z,3444
2023-05-02T11:41:50.093Z,3388
2023-05-02T11:42:51.147Z,3320
2023-05-02T11:43:51.880Z,3272
2023-05-02T11:44:52.419Z,3236
2023-05-02T11:45:53.060Z,3204
2023-05-02T11:46:54.448Z,3160
2023-05-02T11:47:54.647Z,3108
2023-05-02T11:48:54.710Z,3048
2023-05-02T11:49:55.048Z,3004
2023-05-02T11:51:01.113Z,2964
2023-05-02T11:51:56.451Z,2940
2023-05-02T11:52:57.382Z,2884
2023-05-02T11:53:57.683Z,2812
2023-05-02T11:54:58.701Z,2728
2023-05-02T11:55:59.058Z,2644
2023-05-02T11:56:59.862Z,2560
2023-05-02T11:58:00.658Z,2500
2023-05-02T11:59:01.818Z,2448
2023-05-02T12:00:01.999Z,2412
2023-05-02T12:01:02.785Z,2396
2023-05-02T12:02:03.342Z,2392
2023-05-02T12:03:04.273Z,2396
2023-05-02T12:04:05.074Z,2408
2023-05-02T12:05:06.715Z,2424
2023-05-02T12:06:07.355Z,2448
2023-05-02T12:07:09.583Z,2484
2023-05-02T12:08:08.324Z,2532
2023-05-02T12:09:09.043Z,2596
2023-05-02T12:10:09.043Z,2664
2023-05-02T12:11:09.345Z,2696
2023-05-02T12:12:09.523Z,2656
2023-05-02T12:13:11.841Z,2564
2023-05-02T12:14:10.952Z,2472
2023-05-02T12:15:12.082Z,2376
2023-05-02T12:16:12.425Z,2308
2023-05-02T12:17:12.778Z,2240
2023-05-02T12:18:12.928Z,2172
2023-05-02T12:19:13.345Z,2124
2023-05-02T12:20:14.498Z,2076
2023-05-02T12:21:14.498Z,2040
2023-05-02T12:22:15.217Z,2012
2023-05-02T12:23:15.722Z,1988
2023-05-02T12:24:16.878Z,1964
2023-05-02T12:25:16.770Z,1956
2023-05-02T12:26:17.526Z,1936
2023-05-02T12:27:17.892Z,1920
2023-05-02T12:28:18.459Z,1900
2023-05-02T12:29:19.628Z,1884
2023-05-02T12:30:20.208Z,1860
2023-05-02T12:31:21.035Z,1832
2023-05-02T12:32:21.998Z,1800
2023-05-02T12:33:22.886Z,1768
2023-05-02T12:34:22.777Z,1744
2023-05-02T12:35:23.569Z,1732
2023-05-02T12:36:24.724Z,1736
2023-05-02T12:37:25.053Z,1776
2023-05-02T12:38:25.582Z,1812
2023-05-02T12:39:26.511Z,1828
2023-05-02T12:40:27.263Z,1820
2023-05-02T12:41:27.801Z,1816
2023-05-02T12:42:29.202Z,1816
2023-05-02T12:43:29.249Z,1828
2023-05-02T12:44:29.665Z,1844
2023-05-02T12:45:30.200Z,1856
2023-05-02T12:46:30.592Z,1864
2023-05-02T12:47:31.952Z,1876
2023-05-02T12:48:31.761Z,1884
2023-05-02T12:49:32.456Z,1896
2023-05-02T12:50:33.364Z,1896
2023-05-02T12:51:34.578Z,1884
2023-05-02T12:52:34.061Z,1852
2023-05-02T12:53:34.940Z,1808
2023-05-02T12:54:36.063Z,1752
2023-05-02T12:55:36.016Z,1700
2023-05-02T12:56:36.746Z,1652
2023-05-02T12:57:37.599Z,1604
2023-05-02T12:58:38.314Z,1564
2023-05-02T12:59:39.083Z,1508
2023-05-02T13:00:39.979Z,1456
2023-05-02T13:01:41.279Z,1408
2023-05-02T13:02:41.318Z,1344
2023-05-02T13:03:42.421Z,1308
2023-05-02T13:04:42.829Z,1316
2023-05-02T13:05:42.982Z,1324
2023-05-02T13:06:45.095Z,1300
2023-05-02T13:08:44.228Z,1252
2023-05-02T13:09:45.031Z,1236
2023-05-02T13:10:45.995Z,1232
2023-05-02T13:11:46.799Z,1236
2023-05-02T13:12:48.138Z,1248
2023-05-02T13:13:48.214Z,1272
2023-05-02T13:14:48.447Z,1312
2023-05-02T13:15:48.619Z,1368
2023-05-02T13:16:49.814Z,1428
2023-05-02T13:17:51.045Z,1492
2023-05-02T13:18:53.760Z,1556
2023-05-02T13:20:11.209Z,1628
2023-05-02T13:21:53.117Z,1736
2023-05-02T13:22:53.988Z,1812
2023-05-02T13:23:54.722Z,1876
2023-05-02T13:24:57.320Z,1912
2023-05-02T13:25:56.286Z,1932
2023-05-02T13:26:57.156Z,1972
2023-05-02T13:27:58.158Z,2048
2023-05-02T13:28:58.034Z,2164
2023-05-02T13:29:59.217Z,2252
2023-05-02T13:31:00.192Z,2320
2023-05-02T13:32:00.220Z,2376
2023-05-02T13:33:00.261Z,2396
2023-05-02T13:34:00.557Z,2472
2023-05-02T13:35:01.523Z,2548
2023-05-02T13:36:01.494Z,2604
2023-05-02T13:37:01.565Z,2784
2023-05-02T13:38:02.207Z,2816
2023-05-02T13:39:03.299Z,2492
2023-05-02T13:40:04.871Z,2444
2023-05-02T13:41:04.947Z,2320
2023-05-02T13:42:06.192Z,2412
2023-05-02T13:43:06.436Z,2496
2023-05-02T13:44:06.137Z,2512
2023-05-02T13:45:06.718Z,2440
2023-05-02T13:46:07.798Z,2340
2023-05-02T13:47:08.630Z,2244
2023-05-02T13:48:09.763Z,2140
2023-05-02T13:49:10.398Z,2048
2023-05-02T13:50:11.581Z,1976
2023-05-02T13:51:11.530Z,1916
2023-05-02T13:52:12.789Z,1872
2023-05-02T13:53:13.537Z,1852
2023-05-02T13:54:14.486Z,1828
2023-05-02T13:55:15.465Z,1800
2023-05-02T13:56:16.260Z,1768
2023-05-02T13:57:17.187Z,1736
2023-05-02T13:58:18.377Z,1692
2023-05-02T13:59:21.858Z,1652
2023-05-02T14:00:19.580Z,1636
2023-05-02T14:01:20.704Z,1612
2023-05-02T14:02:21.709Z,1568
2023-05-02T14:03:22.108Z,1528
2023-05-02T14:04:23.612Z,1492
2023-05-02T14:05:22.617Z,1468
2023-05-02T14:06:23.397Z,1448
2023-05-02T14:07:24.345Z,1440